Time;durP1;ratioP1;P1;durP2;ratioP2;P2;SDS_P1;SDS_P2;PMS_P1;PMS_P2;Temp;Humidity;BMP_temperature;BMP_pressure;BME280_temperature;BME280_humidity;BME280_pressure;Samples;Min_cycle;Max_cycle;Signal;HPM_P1;HPM_P2
2022/08/20 00:01:57;;;;;;;0.75;0.63;;;;;;;13.64;100.00;100784.84;4988314;28;20468;-81
2022/08/20 00:04:23;;;;;;;1.00;0.88;;;;;;;13.61;100.00;100773.59;4986047;28;20037;-83
2022/08/20 00:06:49;;;;;;;0.45;0.40;;;;;;;13.62;100.00;100770.69;4990702;28;20041;-83
2022/08/20 00:09:14;;;;;;;4.18;0.95;;;;;;;13.66;100.00;100781.13;5004464;28;20040;-82
2022/08/20 00:11:40;;;;;;;0.30;0.30;;;;;;;13.69;100.00;100784.25;5002547;28;20041;-82
2022/08/20 00:14:06;;;;;;;0.30;0.30;;;;;;;13.70;100.00;100774.28;5004081;28;20045;-82
2022/08/20 00:16:35;;;;;;;0.30;0.30;;;;;;;13.70;100.00;100769.69;5002713;28;20029;-82
2022/08/20 00:19:02;;;;;;;1.40;0.77;;;;;;;13.60;100.00;100761.97;4990547;28;20037;-82
2022/08/20 00:21:28;;;;;;;1.23;0.75;;;;;;;13.72;100.00;100761.41;4969835;28;20510;-83
2022/08/20 00:23:55;;;;;;;1.08;0.60;;;;;;;13.71;100.00;100755.19;5007796;28;20038;-83
2022/08/20 00:26:21;;;;;;;0.30;0.30;;;;;;;13.73;100.00;100752.25;5004309;28;20034;-82
2022/08/20 00:28:47;;;;;;;1.00;0.90;;;;;;;13.74;100.00;100751.25;4966612;28;20038;-84
2022/08/20 00:31:17;;;;;;;0.43;0.40;;;;;;;13.81;100.00;100763.78;5001972;28;20498;-82
2022/08/20 00:33:43;;;;;;;0.40;0.40;;;;;;;13.79;100.00;100765.84;5005580;28;20030;-82
2022/08/20 00:36:11;;;;;;;0.70;0.52;;;;;;;13.75;100.00;100764.53;4988499;28;20652;-83
2022/08/20 00:38:38;;;;;;;0.47;0.40;;;;;;;13.86;100.00;100765.88;4990974;28;20046;-83
2022/08/20 00:41:06;;;;;;;0.43;0.43;;;;;;;13.84;100.00;100751.75;4986916;28;20475;-82
2022/08/20 00:44:04;;;;;;;1.58;0.65;;;;;;;13.84;100.00;100757.16;4968867;28;20052;-82
2022/08/20 00:46:30;;;;;;;1.42;0.95;;;;;;;13.78;100.00;100734.41;4968040;28;20164;-83
2022/08/20 00:48:57;;;;;;;0.88;0.65;;;;;;;13.81;100.00;100746.72;5002969;28;20038;-82
2022/08/20 00:51:37;;;;;;;5.03;1.13;;;;;;;13.87;100.00;100743.22;4980417;28;20029;-84
2022/08/20 00:54:09;;;;;;;1.67;1.58;;;;;;;13.86;100.00;100752.34;4970199;28;20029;-83
2022/08/20 00:56:36;;;;;;;2.50;0.95;;;;;;;13.78;100.00;100739.00;4981908;28;20041;-82
2022/08/20 00:59:05;;;;;;;1.02;0.60;;;;;;;13.80;100.00;100739.63;4988342;28;20058;-82
2022/08/20 01:01:33;;;;;;;1.33;0.70;;;;;;;13.83;100.00;100731.13;4993858;28;20038;-83
2022/08/20 01:03:59;;;;;;;0.28;0.28;;;;;;;13.80;100.00;100734.22;4983935;28;20116;-82
2022/08/20 01:06:28;;;;;;;1.73;1.25;;;;;;;13.83;100.00;100731.13;4985043;28;20041;-83
2022/08/20 01:08:54;;;;;;;0.65;0.63;;;;;;;13.82;100.00;100724.91;4990422;28;20427;-82
2022/08/20 01:11:31;;;;;;;2.20;1.27;;;;;;;13.88;100.00;100728.66;5007734;28;20125;-83
2022/08/20 01:13:57;;;;;;;0.60;0.50;;;;;;;13.89;100.00;100729.50;4987000;28;20541;-81
2022/08/20 01:16:28;;;;;;;0.52;0.52;;;;;;;13.85;100.00;100712.84;4991485;28;20034;-82
2022/08/20 01:18:53;;;;;;;2.58;0.68;;;;;;;13.91;100.00;100717.47;4987125;28;20042;-82
2022/08/20 01:21:22;;;;;;;0.50;0.50;;;;;;;13.77;100.00;100694.09;5001026;28;20288;-83
2022/08/20 01:24:09;;;;;;;1.10;0.85;;;;;;;13.90;100.00;100701.47;4986011;28;20117;-82
2022/08/20 01:26:39;;;;;;;1.50;0.90;;;;;;;13.80;100.00;100683.72;4990121;28;21786;-82
2022/08/20 01:29:08;;;;;;;1.10;0.40;;;;;;;13.87;100.00;100700.00;5005352;28;20508;-81
2022/08/20 01:31:36;;;;;;;1.23;1.05;;;;;;;13.92;100.00;100707.47;5004233;28;20030;-82
2022/08/20 01:34:04;;;;;;;1.65;0.63;;;;;;;13.82;100.00;100694.34;5006337;28;20075;-82
2022/08/20 01:36:38;;;;;;;3.63;1.25;;;;;;;13.83;100.00;100696.81;4986064;28;20030;-82
2022/08/20 01:39:07;;;;;;;8.57;1.35;;;;;;;13.82;100.00;100697.03;5005009;28;20136;-82
2022/08/20 01:41:52;;;;;;;8.77;2.00;;;;;;;13.76;100.00;100693.28;4987396;28;20045;-85
2022/08/20 01:44:19;;;;;;;0.90;0.63;;;;;;;13.85;100.00;100702.88;4984833;28;20045;-83
2022/08/20 01:46:48;;;;;;;1.05;0.70;;;;;;;13.82;100.00;100697.03;5002673;28;20400;-82
2022/08/20 01:49:30;;;;;;;2.67;0.93;;;;;;;13.82;100.00;100699.75;4973840;28;20455;-82
2022/08/20 01:51:59;;;;;;;0.55;0.55;;;;;;;13.74;100.00;100683.69;4964803;28;20038;-83
2022/08/20 01:54:26;;;;;;;1.58;1.27;;;;;;;13.77;100.00;100692.22;4984494;28;20105;-82
2022/08/20 01:57:01;;;;;;;1.27;0.80;;;;;;;13.68;100.00;100697.97;4963497;28;20049;-82
2022/08/20 01:59:28;;;;;;;2.05;0.80;;;;;;;13.66;100.00;100691.97;4983462;28;20038;-81
2022/08/20 02:01:54;;;;;;;2.33;0.80;;;;;;;13.78;100.00;100690.34;4982686;28;20030;-82
2022/08/20 02:04:20;;;;;;;0.90;0.68;;;;;;;13.85;100.00;100691.22;4988166;28;20029;-82
2022/08/20 02:06:49;;;;;;;2.42;1.42;;;;;;;13.90;100.00;100685.25;5003745;28;20507;-82
2022/08/20 02:09:15;;;;;;;3.30;1.10;;;;;;;13.91;100.00;100690.44;4987669;28;20041;-83
2022/08/20 02:11:41;;;;;;;1.23;0.85;;;;;;;14.00;100.00;100691.94;4969248;28;20340;-82
2022/08/20 02:14:08;;;;;;;0.85;0.82;;;;;;;14.05;100.00;100703.00;4983373;28;20042;-84
2022/08/20 02:16:37;;;;;;;1.42;1.15;;;;;;;14.02;100.00;100706.06;4965225;28;20491;-82
2022/08/20 02:19:16;;;;;;;0.75;0.52;;;;;;;14.11;100.00;100709.47;4986183;28;20045;-82
2022/08/20 02:21:46;;;;;;;1.30;1.00;;;;;;;14.03;100.00;100698.84;4981081;28;21868;-82
2022/08/20 02:24:12;;;;;;;1.17;0.98;;;;;;;14.09;100.00;100692.59;4984029;28;20034;-83
2022/08/20 02:26:38;;;;;;;1.85;1.10;;;;;;;14.13;100.00;100709.25;4969781;28;20045;-82
2022/08/20 02:29:07;;;;;;;2.75;1.92;;;;;;;14.12;100.00;100702.19;4984929;28;20038;-82
2022/08/20 02:31:34;;;;;;;3.15;1.23;;;;;;;14.17;100.00;100703.25;4981910;28;20030;-81
2022/08/20 02:34:01;;;;;;;1.13;0.80;;;;;;;14.18;100.00;100704.91;5003575;28;20120;-82
2022/08/20 02:36:27;;;;;;;5.45;1.45;;;;;;;14.21;100.00;100715.34;4987961;28;20045;-82
2022/08/20 02:38:52;;;;;;;4.75;2.28;;;;;;;14.20;100.00;100700.16;4997385;28;20395;-82
2022/08/20 02:41:20;;;;;;;8.57;1.80;;;;;;;14.19;100.00;100716.59;4986154;28;20399;-82
2022/08/20 02:43:47;;;;;;;3.85;2.38;;;;;;;14.07;100.00;100698.22;4987156;28;20045;-81
2022/08/20 02:46:14;;;;;;;8.23;3.17;;;;;;;14.08;100.00;100704.47;4981279;28;20022;-83
2022/08/20 02:48:42;;;;;;;4.80;1.80;;;;;;;14.14;100.00;100708.25;4983522;28;20069;-82
2022/08/20 02:51:08;;;;;;;4.55;2.13;;;;;;;14.11;100.00;100711.34;4980989;28;20041;-83
2022/08/20 02:53:37;;;;;;;9.75;3.53;;;;;;;14.17;100.00;100705.97;4992030;28;20034;-83
2022/08/20 02:56:05;;;;;;;9.48;4.22;;;;;;;14.16;100.00;100709.72;4962460;28;20038;-83
2022/08/20 02:58:31;;;;;;;5.07;2.63;;;;;;;14.22;100.00;100708.91;4998045;28;20045;-82
2022/08/20 03:00:58;;;;;;;16.77;4.88;;;;;;;14.21;100.00;100707.25;4987508;28;20479;-83
2022/08/20 03:03:24;;;;;;;27.60;4.63;;;;;;;14.21;100.00;100703.69;4999234;28;20085;-82
2022/08/20 03:05:53;;;;;;;13.13;4.45;;;;;;;14.08;100.00;100672.84;4979880;28;20425;-83
2022/08/20 03:08:20;;;;;;;13.40;4.05;;;;;;;14.25;100.00;100696.84;4979227;28;20030;-83
2022/08/20 03:10:46;;;;;;;13.63;4.70;;;;;;;14.27;100.00;100700.19;4988869;28;20157;-83
2022/08/20 03:13:13;;;;;;;22.63;4.00;;;;;;;14.14;100.00;100700.97;4988257;28;20601;-82
2022/08/20 03:15:43;;;;;;;11.50;3.80;;;;;;;13.97;100.00;100703.16;4985310;28;20030;-80
2022/08/20 03:18:09;;;;;;;0.45;0.45;;;;;;;13.79;100.00;100695.56;4984874;28;20038;-80
2022/08/20 03:20:35;;;;;;;4.07;3.63;;;;;;;13.76;100.00;100695.13;5006418;28;20054;-79
2022/08/20 03:23:01;;;;;;;2.58;1.25;;;;;;;13.72;100.00;100701.97;4997152;28;20036;-80
2022/08/20 03:25:28;;;;;;;1.45;1.33;;;;;;;13.70;100.00;100685.94;5000013;28;20049;-81
2022/08/20 03:27:54;;;;;;;1.13;0.57;;;;;;;13.69;100.00;100681.56;4967463;28;20481;-81
2022/08/20 03:30:20;;;;;;;11.98;3.95;;;;;;;13.78;100.00;100685.78;4982096;28;20048;-81
2022/08/20 03:32:46;;;;;;;3.08;1.58;;;;;;;13.80;100.00;100681.00;4986007;28;20034;-80
2022/08/20 03:35:13;;;;;;;2.20;1.67;;;;;;;13.77;100.00;100675.19;4982581;28;20037;-81
2022/08/20 03:37:40;;;;;;;4.47;1.48;;;;;;;13.78;100.00;100685.78;4988281;28;20109;-82
2022/08/20 03:40:08;;;;;;;3.03;1.40;;;;;;;13.81;100.00;100685.41;4981887;28;20033;-80
2022/08/20 03:42:34;;;;;;;1.25;1.15;;;;;;;13.79;100.00;100682.06;4976801;28;20069;-81
2022/08/20 03:45:00;;;;;;;1.60;1.23;;;;;;;13.78;100.00;100679.53;4987012;28;20475;-81
2022/08/20 03:47:26;;;;;;;19.02;2.58;;;;;;;13.75;100.00;100674.53;5001090;28;20121;-81
2022/08/20 03:49:54;;;;;;;4.35;2.58;;;;;;;13.74;100.00;100694.50;4970072;28;20049;-82
2022/08/20 03:52:20;;;;;;;2.08;1.38;;;;;;;13.62;100.00;100680.69;4968725;28;20034;-81
2022/08/20 03:54:46;;;;;;;0.50;0.50;;;;;;;13.54;100.00;100684.38;4998551;28;20045;-82
2022/08/20 03:57:15;;;;;;;0.90;0.80;;;;;;;13.41;100.00;100668.06;4997670;28;20391;-81
2022/08/20 03:59:43;;;;;;;2.58;1.35;;;;;;;13.52;100.00;100681.06;4971527;28;20034;-82
2022/08/20 04:02:10;;;;;;;1.58;0.75;;;;;;;13.59;100.00;100687.31;4973428;28;20156;-82
2022/08/20 04:04:36;;;;;;;0.63;0.63;;;;;;;13.51;100.00;100678.53;4985726;28;20415;-81
2022/08/20 04:07:24;;;;;;;0.40;0.40;;;;;;;13.52;100.00;100685.59;4987408;28;20543;-82
2022/08/20 04:09:51;;;;;;;1.10;0.82;;;;;;;13.46;100.00;100683.69;4997294;28;20048;-82
2022/08/20 04:12:17;;;;;;;1.10;0.70;;;;;;;13.43;100.00;100679.53;4986663;28;20038;-83
2022/08/20 04:14:43;;;;;;;0.75;0.63;;;;;;;13.44;100.00;100686.59;5005451;28;20022;-82
2022/08/20 04:17:11;;;;;;;0.47;0.47;;;;;;;13.45;100.00;100688.28;5011289;28;20048;-81
2022/08/20 04:19:37;;;;;;;0.80;0.77;;;;;;;13.45;100.00;100684.75;4977489;28;20530;-82
2022/08/20 04:22:04;;;;;;;0.52;0.50;;;;;;;13.35;100.00;100679.66;5005570;28;20032;-81
2022/08/20 04:24:30;;;;;;;1.08;0.82;;;;;;;13.41;100.00;100693.22;5008739;28;20068;-81
2022/08/20 04:26:57;;;;;;;1.40;0.77;;;;;;;13.46;100.00;100697.19;5002683;28;20526;-82
2022/08/20 04:29:24;;;;;;;4.82;1.33;;;;;;;13.56;100.00;100698.53;4990309;28;20046;-82
2022/08/20 04:31:51;;;;;;;0.55;0.55;;;;;;;13.59;100.00;100690.03;5005199;28;20133;-84
2022/08/20 04:34:18;;;;;;;0.30;0.30;;;;;;;13.71;100.00;100705.72;4974602;28;20042;-82
2022/08/20 04:36:47;;;;;;;2.80;0.75;;;;;;;13.57;100.00;100681.28;4988645;28;20381;-82
2022/08/20 04:39:13;;;;;;;0.50;0.50;;;;;;;13.72;100.00;100699.25;4966850;28;20489;-82
2022/08/20 04:41:40;;;;;;;1.00;0.75;;;;;;;13.72;100.00;100697.38;4974234;28;20034;-82
2022/08/20 04:44:06;;;;;;;1.30;0.95;;;;;;;13.75;100.00;100698.88;4988906;28;20046;-82
2022/08/20 04:46:32;;;;;;;0.50;0.50;;;;;;;13.75;100.00;100701.56;4997976;28;20029;-83
2022/08/20 04:48:59;;;;;;;0.40;0.40;;;;;;;13.72;100.00;100701.97;5004217;28;20499;-82
2022/08/20 04:51:25;;;;;;;2.20;1.48;;;;;;;13.70;100.00;100712.97;4986619;28;20068;-82
2022/08/20 04:53:52;;;;;;;4.53;1.42;;;;;;;13.54;100.00;100700.59;4998532;28;20112;-82
2022/08/20 04:56:22;;;;;;;0.80;0.50;;;;;;;13.29;100.00;100653.47;4988183;28;20518;-82
2022/08/20 04:58:49;;;;;;;0.80;0.70;;;;;;;13.55;100.00;100691.47;4985287;28;20447;-82
2022/08/20 05:01:15;;;;;;;0.30;0.30;;;;;;;13.64;100.00;100711.06;4971552;28;20041;-83
2022/08/20 05:03:42;;;;;;;0.60;0.60;;;;;;;13.68;100.00;100706.94;4973722;28;20057;-83
2022/08/20 05:06:11;;;;;;;1.50;1.15;;;;;;;13.76;100.00;100704.09;4995344;28;20041;-83
2022/08/20 05:08:37;;;;;;;1.55;1.00;;;;;;;13.53;100.00;100662.97;4984453;28;20367;-83
2022/08/20 05:11:03;;;;;;;0.47;0.47;;;;;;;13.73;100.00;100690.94;4987799;28;20030;-83
2022/08/20 05:13:29;;;;;;;0.88;0.85;;;;;;;13.66;100.00;100689.25;4986422;28;20143;-83
2022/08/20 05:15:56;;;;;;;9.32;1.13;;;;;;;13.50;100.00;100675.00;4988483;28;20080;-83
2022/08/20 05:18:24;;;;;;;1.45;0.98;;;;;;;13.67;100.00;100699.03;4986660;28;20037;-84
2022/08/20 05:20:50;;;;;;;1.80;1.02;;;;;;;13.67;100.00;100683.63;4977003;28;20030;-82
2022/08/20 05:23:17;;;;;;;0.65;0.65;;;;;;;13.82;100.00;100697.03;4981305;28;20400;-83
2022/08/20 05:25:46;;;;;;;4.28;1.50;;;;;;;13.89;100.00;100697.06;5009017;28;20542;-84
2022/08/20 05:28:21;;;;;;;9.05;1.83;;;;;;;13.92;100.00;100680.44;4992155;28;20026;-84
2022/08/20 05:30:48;;;;;;;0.77;0.75;;;;;;;13.99;100.00;100692.97;4986093;28;20081;-83
2022/08/20 05:33:16;;;;;;;1.45;0.95;;;;;;;13.87;100.00;100691.88;4983983;28;20042;-84
2022/08/20 05:35:43;;;;;;;1.25;1.02;;;;;;;13.97;100.00;100716.69;4989351;28;20460;-83
2022/08/20 05:38:10;;;;;;;13.43;3.35;;;;;;;13.92;100.00;100712.88;4973034;28;20099;-83
2022/08/20 05:40:39;;;;;;;4.65;1.55;;;;;;;13.87;100.00;100708.09;4994927;28;20026;-83
2022/08/20 05:43:04;;;;;;;4.38;1.40;;;;;;;13.63;100.00;100675.09;4995275;28;20026;-83
2022/08/20 05:45:32;;;;;;;6.47;1.95;;;;;;;13.76;100.00;100712.19;4989919;28;20145;-83
2022/08/20 05:48:02;;;;;;;6.10;2.03;;;;;;;13.76;100.00;100704.09;5000921;28;20495;-84
2022/08/20 05:50:28;;;;;;;8.75;3.17;;;;;;;13.74;100.00;100697.22;4986733;28;20037;-83
2022/08/20 05:52:54;;;;;;;11.30;2.83;;;;;;;13.80;100.00;100709.91;4986865;28;20037;-82
2022/08/20 05:55:19;;;;;;;5.22;2.28;;;;;;;13.83;100.00;100709.50;5005680;28;20046;-82
2022/08/20 05:57:45;;;;;;;10.60;3.08;;;;;;;13.84;100.00;100703.91;4970493;28;20092;-82
2022/08/20 06:00:13;;;;;;;10.30;2.78;;;;;;;13.98;100.00;100712.94;4986659;28;20092;-83
2022/08/20 06:05:24;;;;;;;15.43;4.82;;;;;;;14.18;100.00;100699.50;4997298;28;20045;-83
2022/08/20 06:07:52;;;;;;;13.35;4.30;;;;;;;14.32;100.00;100696.88;4983502;28;20041;-83
2022/08/20 06:10:18;;;;;;;10.10;3.17;;;;;;;14.41;100.00;100695.66;4989118;28;20137;-82
2022/08/20 06:12:44;;;;;;;19.48;5.68;;;;;;;14.37;100.00;100695.25;4947676;28;20038;-83
2022/08/20 06:15:11;;;;;;;23.17;5.00;;;;;;;14.41;100.00;100693.78;4983332;28;20033;-84
2022/08/20 06:17:37;;;;;;;16.17;4.07;;;;;;;14.48;100.00;100691.94;4990532;28;20053;-83
2022/08/20 06:20:06;;;;;;;44.97;9.98;;;;;;;14.45;100.00;100684.25;5004544;28;20038;-83
2022/08/20 06:22:32;;;;;;;29.55;5.40;;;;;;;14.57;100.00;100691.78;4982717;28;20395;-83
2022/08/20 06:24:57;;;;;;;23.05;5.82;;;;;;;14.63;100.00;100704.50;4985077;28;20040;-83
2022/08/20 06:27:23;;;;;;;24.40;6.57;;;;;;;14.58;100.00;100694.31;4999014;28;20376;-82
2022/08/20 06:29:50;;;;;;;16.35;4.45;;;;;;;14.65;100.00;100700.53;4995567;28;20042;-83
2022/08/20 06:32:18;;;;;;;19.50;5.05;;;;;;;14.61;100.00;100691.19;4986757;28;20033;-83
2022/08/20 06:34:44;;;;;;;27.52;6.15;;;;;;;14.66;100.00;100698.66;4999585;28;20029;-84
2022/08/20 06:37:19;;;;;;;12.32;5.25;;;;;;;14.79;100.00;100700.59;4966771;28;20029;-83
2022/08/20 06:39:45;;;;;;;15.40;4.82;;;;;;;14.88;100.00;100693.94;5008460;28;20475;-83
2022/08/20 06:42:12;;;;;;;20.80;5.30;;;;;;;14.82;100.00;100655.00;4966566;28;20095;-83
2022/08/20 06:44:38;;;;;;;16.20;4.85;;;;;;;15.15;100.00;100690.22;4998292;28;20077;-83
2022/08/20 06:47:04;;;;;;;25.13;5.95;;;;;;;15.19;100.00;100677.13;4995508;28;20058;-83
2022/08/20 06:49:30;;;;;;;20.63;6.38;;;;;;;15.20;100.00;100675.22;4971913;28;20514;-83
2022/08/20 06:51:56;;;;;;;21.63;5.35;;;;;;;15.42;100.00;100687.50;4999223;28;20480;-83
2022/08/20 06:54:22;;;;;;;31.30;5.93;;;;;;;15.53;100.00;100692.31;4974865;28;20044;-84
2022/08/20 06:56:48;;;;;;;28.42;5.70;;;;;;;15.59;100.00;100666.25;4984139;28;20046;-83
2022/08/20 06:59:14;;;;;;;36.30;8.05;;;;;;;15.95;100.00;100700.19;5007060;28;20049;-83
2022/08/20 07:01:39;;;;;;;29.85;6.55;;;;;;;15.93;100.00;100678.72;4971090;28;20026;-84
2022/08/20 07:04:07;;;;;;;21.98;4.85;;;;;;;16.13;100.00;100699.50;5006922;28;20090;-84
2022/08/20 07:06:53;;;;;;;17.90;5.28;;;;;;;16.40;100.00;100694.81;5003136;28;20049;-83
2022/08/20 07:09:20;;;;;;;23.08;5.70;;;;;;;16.60;100.00;100673.81;4987324;28;20055;-83
2022/08/20 07:11:49;;;;;;;30.05;7.03;;;;;;;16.87;100.00;100693.53;4975981;28;20073;-83
2022/08/20 07:14:16;;;;;;;28.98;5.25;;;;;;;16.92;100.00;100684.72;5000622;28;20483;-84
2022/08/20 07:16:42;;;;;;;20.50;6.20;;;;;;;16.86;100.00;100677.47;4968564;28;20128;-84
2022/08/20 07:19:08;;;;;;;21.70;6.05;;;;;;;16.79;100.00;100665.81;4965903;28;20514;-84
2022/08/20 07:21:35;;;;;;;14.40;5.45;;;;;;;16.83;100.00;100697.75;4976202;28;20026;-84
2022/08/20 07:24:04;;;;;;;39.47;6.10;;;;;;;16.68;100.00;100687.13;4978858;28;20030;-83
2022/08/20 07:26:30;;;;;;;29.58;6.60;;;;;;;16.61;100.00;100702.63;4995536;28;20033;-83
2022/08/20 07:28:56;;;;;;;17.80;4.70;;;;;;;16.58;100.00;100703.06;4983534;28;20029;-84
2022/08/20 07:34:07;;;;;;;17.42;6.60;;;;;;;16.91;100.00;100707.53;4998280;28;20034;-83
2022/08/20 07:36:33;;;;;;;34.85;7.40;;;;;;;17.03;100.00;100688.63;4984029;28;20038;-84
2022/08/20 07:39:00;;;;;;;20.63;5.53;;;;;;;17.02;100.00;100676.94;4992090;28;20036;-84
2022/08/20 07:41:26;;;;;;;26.00;7.18;;;;;;;17.29;100.00;100709.31;4995764;28;20161;-83
2022/08/20 07:43:52;;;;;;;32.72;6.72;;;;;;;17.48;100.00;100710.22;5006794;28;20136;-83
2022/08/20 07:46:20;;;;;;;22.63;5.97;;;;;;;17.49;100.00;100688.25;5012339;28;20040;-83
2022/08/20 07:48:48;;;;;;;27.23;8.48;;;;;;;17.88;100.00;100707.97;4996678;28;20044;-84
2022/08/20 07:51:17;;;;;;;30.33;6.57;;;;;;;17.95;100.00;100711.44;4967651;28;20053;-84
2022/08/20 07:53:44;;;;;;;23.65;5.68;;;;;;;18.04;100.00;100711.16;4988481;28;20076;-84
2022/08/20 07:56:12;;;;;;;23.33;7.63;;;;;;;19.45;92.58;100706.28;5008568;28;20045;-85
2022/08/20 07:58:42;;;;;;;33.08;7.20;;;;;;;19.38;91.57;100713.75;4990703;28;20066;-84
2022/08/20 08:01:09;;;;;;;33.58;6.00;;;;;;;18.70;95.96;100723.94;4995758;28;22143;-84
2022/08/20 08:03:36;;;;;;;13.90;3.40;;;;;;;18.24;98.16;100717.22;5005009;28;20109;-85
2022/08/20 08:06:02;;;;;;;23.55;6.63;;;;;;;17.89;97.12;100715.09;5007831;28;20031;-84
2022/08/20 08:08:28;;;;;;;17.55;4.90;;;;;;;17.71;98.54;100725.91;5003098;28;20042;-84
2022/08/20 08:11:00;;;;;;;20.85;6.75;;;;;;;17.55;99.20;100725.41;4988832;28;20050;-84
2022/08/20 08:13:27;;;;;;;27.33;6.55;;;;;;;17.38;96.92;100726.19;4973837;28;20026;-83
2022/08/20 08:15:58;;;;;;;24.52;6.75;;;;;;;17.52;95.97;100720.44;4974349;28;20068;-83
2022/08/20 08:18:26;;;;;;;27.20;7.20;;;;;;;17.63;93.58;100732.47;4971027;28;20037;-84
2022/08/20 08:20:52;;;;;;;27.38;6.78;;;;;;;17.61;92.11;100731.00;4986762;28;20471;-84
2022/08/20 08:23:20;;;;;;;22.90;5.32;;;;;;;18.32;89.78;100724.25;5004960;28;20475;-84
2022/08/20 08:25:46;;;;;;;23.75;6.15;;;;;;;17.87;93.90;100719.91;4969933;28;20044;-83
2022/08/20 08:28:13;;;;;;;12.38;4.45;;;;;;;17.90;94.18;100738.50;5012023;28;20080;-83
2022/08/20 08:30:42;;;;;;;16.05;5.60;;;;;;;18.53;88.25;100728.38;5003055;28;20064;-83
2022/08/20 08:33:48;;;;;;;23.35;5.63;;;;;;;18.70;85.91;100731.28;4966084;28;20134;-83
2022/08/20 08:36:15;;;;;;;34.03;5.85;;;;;;;19.41;81.90;100735.09;5001515;28;20053;-84
2022/08/20 08:38:43;;;;;;;29.85;6.60;;;;;;;20.11;78.22;100726.94;4993278;28;20037;-84
2022/08/20 08:41:35;;;;;;;28.17;5.95;;;;;;;20.12;76.04;100730.50;4999926;28;20040;-84
2022/08/20 08:44:05;;;;;;;19.38;5.43;;;;;;;19.35;77.56;100708.78;4990815;28;20028;-83
2022/08/20 08:46:39;;;;;;;21.65;6.70;;;;;;;20.00;74.07;100716.84;5012984;28;20480;-83
2022/08/20 08:49:07;;;;;;;21.75;5.20;;;;;;;20.63;70.12;100705.06;5001457;28;20034;-83
2022/08/20 08:51:38;;;;;;;29.42;7.10;;;;;;;20.84;69.47;100710.94;4983227;28;20034;-84
2022/08/20 08:54:04;;;;;;;25.83;5.25;;;;;;;20.33;71.69;100690.81;4981540;28;20061;-85
2022/08/20 08:56:30;;;;;;;23.83;5.43;;;;;;;20.37;71.15;100702.88;4984820;28;20061;-83
2022/08/20 08:59:03;;;;;;;20.65;5.35;;;;;;;22.05;64.65;100715.91;4991341;28;20360;-83
2022/08/20 09:01:31;;;;;;;11.18;4.00;;;;;;;21.84;64.24;100716.72;4970910;28;20086;-84
2022/08/20 09:03:56;;;;;;;19.95;6.00;;;;;;;22.31;60.65;100699.84;5001243;28;20064;-85
2022/08/20 09:06:24;;;;;;;17.73;5.25;;;;;;;22.63;59.69;100710.09;4998818;28;20573;-82
2022/08/20 09:08:52;;;;;;;43.47;7.20;;;;;;;24.34;55.00;100704.53;4970205;28;20037;-83
2022/08/20 09:11:21;;;;;;;19.77;4.20;;;;;;;25.79;49.61;100708.03;4989993;28;20040;-83
2022/08/20 09:13:48;;;;;;;23.42;6.38;;;;;;;23.95;54.40;100712.31;4983050;28;20065;-85
2022/08/20 09:16:14;;;;;;;28.70;6.82;;;;;;;23.11;58.12;100711.97;5004290;28;22382;-83
2022/08/20 09:18:40;;;;;;;25.30;5.60;;;;;;;21.72;61.65;100686.69;4981753;28;20045;-85
2022/08/20 09:21:06;;;;;;;15.43;5.07;;;;;;;20.88;63.32;100706.66;4999523;28;20476;-85
2022/08/20 09:23:32;;;;;;;21.48;5.75;;;;;;;22.82;56.96;100717.69;4984035;28;20063;-85
2022/08/20 09:25:58;;;;;;;27.23;6.03;;;;;;;22.22;58.22;100685.75;4972178;28;20050;-85
2022/08/20 09:28:24;;;;;;;22.20;6.65;;;;;;;22.76;56.80;100694.06;4991470;28;20053;-84
2022/08/20 09:30:50;;;;;;;19.42;5.60;;;;;;;25.19;50.64;100694.06;4970877;28;20058;-90
2022/08/20 09:33:16;;;;;;;26.98;6.35;;;;;;;24.61;50.92;100712.66;4972204;28;20512;-89
2022/08/20 09:35:44;;;;;;;23.00;5.63;;;;;;;25.44;48.21;100684.16;4993061;28;20034;-90
2022/08/20 09:38:10;;;;;;;20.45;4.70;;;;;;;25.63;47.29;100684.38;4994700;28;20042;-90
2022/08/20 09:40:36;;;;;;;22.65;4.80;;;;;;;23.94;50.78;100664.00;4984935;28;20049;-90
2022/08/20 09:43:05;;;;;;;19.05;5.13;;;;;;;22.55;55.22;100670.28;4968539;28;20034;-90
2022/08/20 09:45:30;;;;;;;15.32;4.90;;;;;;;21.50;60.53;100716.75;4974930;28;20030;-89
2022/08/20 09:47:56;;;;;;;18.83;5.20;;;;;;;20.57;62.51;100645.16;4988426;28;20057;-90
2022/08/20 09:50:24;;;;;;;28.67;5.03;;;;;;;20.78;64.33;100710.00;4992936;28;20494;-89
2022/08/20 09:52:51;;;;;;;14.77;3.83;;;;;;;22.15;58.14;100660.47;4989539;28;20045;-89
2022/08/20 09:55:38;;;;;;;21.77;5.55;;;;;;;21.68;60.04;100697.31;4971872;28;20048;-91
2022/08/20 09:58:19;;;;;;;19.00;5.13;;;;;;;24.88;50.89;100709.69;4980483;28;20154;-88
2022/08/20 10:00:46;;;;;;;17.37;4.43;;;;;;;26.24;46.13;100684.22;4986508;28;20480;-92
2022/08/20 10:03:11;;;;;;;22.15;6.13;;;;;;;27.47;44.67;100712.97;4984369;28;20492;-93
2022/08/20 10:05:37;;;;;;;18.15;4.47;;;;;;;27.90;41.60;100691.88;5008980;28;20073;-89
2022/08/20 10:08:07;;;;;;;14.57;4.90;;;;;;;28.26;40.58;100691.41;4970945;28;20042;-91
2022/08/20 10:10:33;;;;;;;19.00;5.28;;;;;;;27.40;40.90;100703.09;4977449;28;20056;-90
2022/08/20 10:12:59;;;;;;;14.77;4.38;;;;;;;27.11;42.04;100699.47;4975597;28;20031;-89
2022/08/20 10:15:24;;;;;;;16.75;4.78;;;;;;;28.67;38.34;100685.38;4969976;28;20559;-90
2022/08/20 10:17:50;;;;;;;13.05;4.18;;;;;;;29.46;36.91;100695.78;4983766;28;20388;-91
2022/08/20 10:20:17;;;;;;;17.55;4.65;;;;;;;27.23;40.31;100690.81;5011578;28;20103;-90
2022/08/20 10:22:43;;;;;;;13.52;4.55;;;;;;;25.15;45.13;100689.34;4983799;28;20022;-92
2022/08/20 10:25:09;;;;;;;14.23;4.40;;;;;;;24.16;49.12;100705.00;4992845;28;20519;-91
2022/08/20 10:27:35;;;;;;;19.00;4.93;;;;;;;23.94;48.99;100696.94;4991558;28;20523;-92
2022/08/20 10:30:01;;;;;;;17.40;4.97;;;;;;;23.29;49.44;100660.53;4974005;28;20030;-91
2022/08/20 10:32:26;;;;;;;13.30;4.13;;;;;;;24.42;47.63;100662.78;5012550;28;20112;-91
2022/08/20 10:34:52;;;;;;;12.05;4.25;;;;;;;25.07;44.75;100673.41;4973789;28;20066;-91
2022/08/20 10:37:21;;;;;;;13.38;4.30;;;;;;;23.69;47.74;100662.75;4991707;28;20033;-89
2022/08/20 10:39:47;;;;;;;10.35;4.38;;;;;;;22.37;51.77;100649.50;4972343;28;20030;-89
2022/08/20 10:42:13;;;;;;;12.93;3.80;;;;;;;21.94;52.89;100662.94;4995061;28;20033;-90
2022/08/20 10:44:39;;;;;;;9.80;3.38;;;;;;;21.64;53.57;100635.13;4976704;28;20145;-92
2022/08/20 10:47:14;;;;;;;15.32;3.95;;;;;;;22.24;53.88;100691.81;5002803;28;20030;-90
2022/08/20 10:49:40;;;;;;;11.48;4.07;;;;;;;24.12;48.02;100680.00;4978173;28;20033;-90
2022/08/20 10:52:06;;;;;;;10.43;3.67;;;;;;;24.33;48.10;100684.50;4987472;28;20252;-91
2022/08/20 10:54:32;;;;;;;14.40;4.03;;;;;;;24.97;45.63;100654.97;5006853;28;20467;-91
2022/08/20 10:57:02;;;;;;;12.68;4.00;;;;;;;27.74;39.97;100666.31;5006339;28;20041;-89
2022/08/20 10:59:28;;;;;;;12.98;4.53;;;;;;;27.79;39.41;100646.91;4979226;28;20034;-92
2022/08/20 11:01:54;;;;;;;12.93;4.25;;;;;;;25.60;42.78;100657.41;4983927;28;20125;-92
2022/08/20 11:04:19;;;;;;;17.85;4.03;;;;;;;23.61;48.47;100694.25;4973950;28;20058;-90
2022/08/20 11:06:46;;;;;;;12.05;4.03;;;;;;;23.48;50.68;100694.72;4989919;28;20046;-91
2022/08/20 11:09:12;;;;;;;19.98;4.75;;;;;;;22.56;52.19;100663.69;5000769;28;20148;-90
2022/08/20 11:11:38;;;;;;;12.75;4.05;;;;;;;22.48;52.61;100650.44;4995623;28;20046;-89
2022/08/20 11:14:03;;;;;;;7.88;3.13;;;;;;;21.90;54.95;100650.81;5011486;28;20034;-90
2022/08/20 11:16:29;;;;;;;15.57;4.47;;;;;;;22.93;51.96;100657.47;4998273;28;20040;-89
2022/08/20 11:18:55;;;;;;;12.18;4.07;;;;;;;22.87;52.57;100642.06;5023968;28;20037;-89
2022/08/20 11:21:20;;;;;;;17.02;4.72;;;;;;;23.73;49.96;100682.28;4987425;28;20048;-89
2022/08/20 11:23:46;;;;;;;10.30;3.95;;;;;;;26.60;42.86;100670.28;4991238;28;20037;-91